CYCK1: Republican River, Clay Center, KS

Data processed at Sun Apr 30 2017 22:38


All information presented herein is the property of the government of the United States of America and may be revised or deleted at any time without prior notice.
Dissemination of this information without the expressed written consent of the Public Affairs Office, Tulsa District U.S. Army Corps of Engineers is strictly prohibited.
These data are gathered electronically and, as presented, have not undergone any form of quality control. These data are not guaranteed to be valid or correct.
Go to home page.
Go to station list.
Go to station map.


Previous Day
Next Day
Current Day


    
SHEF ID:       CYCK1     REPUBLICAN R AT CLAY CENTER, KS
STATION TYPE:  

               PRECIP     STAGE  RIV-FLOW  BAT-LOAD
                   in        ft       cfs      volt
              Ccp-Rev   Ccp-Rev   Ccp-Rev   Ccp-Rev
(US/Central)
04/30 00:00      0.00      8.24       746     12.60
04/30 01:00      0.00      8.38       816     12.54
04/30 02:00      0.00      8.51       884     12.54
04/30 03:00      0.00      8.61       938     12.54
04/30 04:00      0.00      8.70       982     12.54
04/30 05:00      0.00      8.78      1030     12.30
04/30 06:00      0.00      8.85      1060     12.54
04/30 07:00      0.00      8.95      1120     12.42
04/30 08:00      0.00      9.10      1200     12.19
04/30 09:00      0.00      9.20      1260     12.30
04/30 10:00      0.00      9.36      1360     12.19
04/30 11:00      0.00      9.61      1510     12.95
04/30 12:00      0.00     10.04      1790     12.65
04/30 13:00      0.00     10.51      2120     12.48
04/30 14:00      0.00     11.00      2500     12.77
04/30 15:00      0.00     11.43      2850     12.77
04/30 16:00      0.00     11.80      3160     12.83
04/30 17:00      0.00     12.11      3440     12.36
04/30 18:00      0.00     12.37      3670     12.42
04/30 19:00      0.00     12.79      4060     12.30
04/30 20:00      0.00     12.99      4250     12.07
04/30 21:00      0.00     13.23      4490     11.89
04/30 22:00      0.00     13.56      4820     12.24
04/30 23:00      ----      ----      ----      ----